createdAt,value
2018-08-06T05:46:10.635Z,16.5
2018-08-06T05:46:31.404Z,16.5
2018-08-06T05:46:52.909Z,16.5
2018-08-06T05:47:14.690Z,16.6
2018-08-06T05:47:36.225Z,16.6
2018-08-06T05:47:57.157Z,16.6
2018-08-06T05:48:18.911Z,16.7
2018-08-06T05:48:39.859Z,16.7
2018-08-06T05:49:00.651Z,16.8
2018-08-06T05:49:21.183Z,16.8
2018-08-06T05:49:41.776Z,16.7
2018-08-06T05:50:02.509Z,16.8
2018-08-06T05:50:22.890Z,16.7
2018-08-06T05:50:43.863Z,16.8
2018-08-06T05:51:05.180Z,16.8
2018-08-06T05:51:26.391Z,16.8
2018-08-06T05:51:47.928Z,16.8
2018-08-06T05:52:10.438Z,16.7
2018-08-06T05:52:30.855Z,16.8
2018-08-06T05:52:52.486Z,16.8
2018-08-06T05:53:13.081Z,16.7
2018-08-06T05:53:34.229Z,16.8
2018-08-06T05:53:55.713Z,16.8
2018-08-06T05:54:17.323Z,16.8
2018-08-06T05:54:38.770Z,16.8
2018-08-06T05:54:59.572Z,16.9
2018-08-06T05:55:20.360Z,16.8
2018-08-06T05:55:40.877Z,16.9
2018-08-06T05:56:01.608Z,16.8
2018-08-06T05:56:22.112Z,16.9
2018-08-06T05:56:42.371Z,16.8
2018-08-06T05:57:04.240Z,16.9
2018-08-06T05:57:24.915Z,16.9
2018-08-06T05:57:45.202Z,16.9
2018-08-06T05:58:05.732Z,16.9
2018-08-06T05:58:26.118Z,17
2018-08-06T05:58:46.583Z,16.9
2018-08-06T05:59:07.788Z,16.9
2018-08-06T05:59:29.738Z,16.9
2018-08-06T05:59:50.045Z,17
2018-08-06T06:00:11.356Z,17
2018-08-06T06:00:31.789Z,17
2018-08-06T06:00:52.912Z,17.1
2018-08-06T06:01:13.359Z,17.1
2018-08-06T06:01:33.760Z,17.1
2018-08-06T06:01:55.034Z,17.1
2018-08-06T06:02:16.229Z,17.1
2018-08-06T06:02:36.684Z,17.1
2018-08-06T06:02:57.883Z,17
2018-08-06T06:03:19.205Z,17.2
2018-08-06T06:03:39.828Z,17.2
2018-08-06T06:04:00.224Z,17.1
2018-08-06T06:04:21.265Z,17.1
2018-08-06T06:04:41.514Z,17.2
2018-08-06T06:05:02.781Z,17.2
2018-08-06T06:05:23.740Z,17.1
2018-08-06T06:05:44.121Z,17.2
2018-08-06T06:06:05.038Z,17.2
2018-08-06T06:06:26.095Z,17.2
2018-08-06T06:06:46.383Z,17.2
2018-08-06T06:07:06.781Z,17.2
2018-08-06T06:07:26.848Z,17.2
2018-08-06T06:07:47.308Z,17.2
2018-08-06T06:08:07.750Z,17.3
2018-08-06T06:08:28.462Z,17.2
2018-08-06T06:08:48.659Z,17.3
2018-08-06T06:09:09.115Z,17.3
2018-08-06T06:09:29.093Z,17.3
2018-08-06T06:09:49.431Z,17.3
2018-08-06T06:10:09.886Z,17.3
2018-08-06T06:10:30.469Z,17.3
2018-08-06T06:10:50.835Z,17.5
2018-08-06T06:11:11.254Z,17.4
2018-08-06T06:11:32.736Z,17.5
2018-08-06T06:11:53.866Z,17.5
2018-08-06T06:12:14.138Z,17.5
2018-08-06T06:12:35.256Z,17.4
2018-08-06T06:12:55.976Z,17.6
2018-08-06T06:13:17.143Z,17.5
2018-08-06T06:13:37.564Z,17.5
2018-08-06T06:13:57.781Z,17.6
2018-08-06T06:14:18.113Z,17.6
2018-08-06T06:14:38.445Z,17.6
2018-08-06T06:14:58.649Z,17.6
2018-08-06T06:15:18.906Z,17.6
2018-08-06T06:15:40.132Z,17.5
2018-08-06T06:16:00.721Z,17.7
2018-08-06T06:16:20.996Z,17.6
2018-08-06T06:16:41.254Z,17.6
2018-08-06T06:17:01.489Z,17.6
2018-08-06T06:17:21.905Z,17.7
2018-08-06T06:17:42.097Z,17.7
2018-08-06T06:18:03.207Z,17.7
2018-08-06T06:18:23.470Z,17.7
2018-08-06T06:18:43.821Z,17.7
2018-08-06T06:19:05.296Z,17.8
2018-08-06T06:19:25.712Z,17.7
2018-08-06T06:19:45.999Z,17.7
2018-08-06T06:20:07.277Z,17.8
2018-08-06T06:20:27.694Z,17.8
2018-08-06T06:20:48.048Z,17.8
2018-08-06T06:21:08.397Z,17.9
2018-08-06T06:21:29.220Z,17.9
2018-08-06T06:21:49.575Z,17.9
2018-08-06T06:22:09.839Z,17.9
2018-08-06T06:22:30.728Z,18
2018-08-06T06:22:51.245Z,18
2018-08-06T06:23:11.533Z,18
2018-08-06T06:23:31.804Z,18
2018-08-06T06:23:52.770Z,18.1
2018-08-06T06:24:14.266Z,18
2018-08-06T06:24:34.520Z,18.1
2018-08-06T06:24:54.742Z,18.1
2018-08-06T06:25:15.060Z,18.1
2018-08-06T06:25:35.462Z,18.1
2018-08-06T06:25:55.658Z,18.1
2018-08-06T06:26:15.953Z,18.1
2018-08-06T06:26:36.319Z,18.2
2018-08-06T06:26:56.992Z,18.2
2018-08-06T06:27:17.306Z,18.2
2018-08-06T06:27:37.579Z,18.1
2018-08-06T06:27:58.672Z,18.3
2018-08-06T06:28:19.751Z,18.4
2018-08-06T06:28:40.247Z,18.3
2018-08-06T06:29:01.244Z,18.2
2018-08-06T06:29:23.296Z,18.2
2018-08-06T06:29:43.769Z,18.2
2018-08-06T06:30:06.258Z,18.2
2018-08-06T06:30:27.209Z,18.3
2018-08-06T06:30:48.160Z,18.3
2018-08-06T06:31:08.687Z,18.4
2018-08-06T06:31:29.724Z,18.3
2018-08-06T06:31:50.820Z,18.3
2018-08-06T06:32:11.441Z,18.3
2018-08-06T06:32:32.709Z,18.4
2018-08-06T06:32:53.749Z,18.4
2018-08-06T06:33:14.789Z,18.4
2018-08-06T06:33:35.038Z,18.5
2018-08-06T06:33:56.381Z,18.4
2018-08-06T06:34:16.719Z,18.5
2018-08-06T06:34:36.998Z,18.6
2018-08-06T06:34:57.236Z,18.6
2018-08-06T06:35:17.396Z,18.6
2018-08-06T06:35:37.832Z,18.5
2018-08-06T06:35:58.685Z,18.5
2018-08-06T06:36:18.957Z,18.6
2018-08-06T06:36:39.305Z,18.5
2018-08-06T06:36:59.627Z,18.6
2018-08-06T06:37:20.751Z,18.6
2018-08-06T06:37:41.727Z,18.7
2018-08-06T06:38:02.287Z,18.6
2018-08-06T06:38:22.599Z,18.7
2018-08-06T06:38:43.155Z,18.7
2018-08-06T06:39:03.614Z,18.7
2018-08-06T06:39:24.049Z,18.8
2018-08-06T06:39:44.430Z,18.7
2018-08-06T06:40:04.737Z,18.7
2018-08-06T06:40:24.956Z,18.7
2018-08-06T06:40:45.196Z,18.8
2018-08-06T06:41:05.506Z,18.7
2018-08-06T06:41:25.780Z,18.8
2018-08-06T06:41:46.391Z,18.8
2018-08-06T06:42:07.002Z,18.8
2018-08-06T06:42:27.330Z,18.8
2018-08-06T06:42:47.760Z,18.8
2018-08-06T06:43:07.985Z,18.8
2018-08-06T06:43:28.268Z,18.8
2018-08-06T06:43:48.552Z,18.8
2018-08-06T06:44:09.757Z,18.9
2018-08-06T06:44:30.873Z,18.8
2018-08-06T06:44:51.788Z,18.9
2018-08-06T06:45:12.101Z,18.8
2018-08-06T06:45:32.558Z,18.9
2018-08-06T06:45:53.345Z,18.9
2018-08-06T06:46:13.616Z,18.9
2018-08-06T06:46:33.837Z,19
2018-08-06T06:46:54.256Z,19
2018-08-06T06:47:14.636Z,19
2018-08-06T06:47:35.072Z,19
2018-08-06T06:47:55.339Z,19
2018-08-06T06:48:15.665Z,19
2018-08-06T06:48:36.058Z,18.9
2018-08-06T06:48:56.805Z,18.9
2018-08-06T06:49:17.498Z,19.1
2018-08-06T06:49:37.820Z,19
2018-08-06T06:49:58.113Z,19
2018-08-06T06:50:19.263Z,19.1
2018-08-06T06:50:39.569Z,19.1
2018-08-06T06:50:59.783Z,19.1
2018-08-06T06:51:20.124Z,19.1
2018-08-06T06:51:41.253Z,19.1
2018-08-06T06:52:01.619Z,19.1
2018-08-06T06:52:21.927Z,19.2
2018-08-06T06:52:42.204Z,19.2
2018-08-06T06:53:02.900Z,19.2
2018-08-06T06:53:23.177Z,19.2
2018-08-06T06:53:43.521Z,19.3
2018-08-06T06:54:03.778Z,19.3
2018-08-06T06:54:24.259Z,19.2
2018-08-06T06:54:44.612Z,19.4
2018-08-06T06:55:04.973Z,19.4
2018-08-06T06:55:25.176Z,19.4
2018-08-06T06:55:45.390Z,19.4
2018-08-06T06:56:05.593Z,19.4
2018-08-06T06:56:25.894Z,19.4
2018-08-06T06:56:46.135Z,19.4
2018-08-06T06:57:07.221Z,19.4
2018-08-06T06:57:27.428Z,19.6
2018-08-06T06:57:47.722Z,19.5
2018-08-06T06:58:08.050Z,19.5
2018-08-06T06:58:28.292Z,19.6
2018-08-06T06:58:48.507Z,19.6
2018-08-06T06:59:08.732Z,19.7
2018-08-06T06:59:29.018Z,19.6
2018-08-06T06:59:49.262Z,19.7
2018-08-06T07:00:09.592Z,19.6
2018-08-06T07:00:29.868Z,19.7
2018-08-06T07:00:50.303Z,19.6
2018-08-06T07:01:10.721Z,19.7
2018-08-06T07:01:31.111Z,19.6
2018-08-06T07:01:51.472Z,19.7
2018-08-06T07:02:12.648Z,19.7
2018-08-06T07:02:33.655Z,19.7
2018-08-06T07:02:53.852Z,19.8
2018-08-06T07:03:14.082Z,19.8
2018-08-06T07:03:35.387Z,19.7
2018-08-06T07:03:55.621Z,19.8
2018-08-06T07:04:15.827Z,19.8
2018-08-06T07:04:35.837Z,19.8
2018-08-06T07:04:55.979Z,19.9
2018-08-06T07:05:16.375Z,19.8
2018-08-06T07:05:36.693Z,19.9
2018-08-06T07:05:56.885Z,19.9
2018-08-06T07:06:18.319Z,19.9
2018-08-06T07:06:38.581Z,20
2018-08-06T07:06:58.733Z,20
2018-08-06T07:07:19.059Z,20
2018-08-06T07:07:39.243Z,20
2018-08-06T07:07:59.423Z,20
2018-08-06T07:08:19.673Z,20.1
2018-08-06T07:08:39.952Z,20
2018-08-06T07:09:00.213Z,20.1
2018-08-06T07:09:20.402Z,20.1
2018-08-06T07:09:41.629Z,20.2
2018-08-06T07:10:01.782Z,20.1
2018-08-06T07:10:22.078Z,20.2
2018-08-06T07:10:42.292Z,20.2
2018-08-06T07:11:03.319Z,20.1
2018-08-06T07:11:23.629Z,20.2
2018-08-06T07:11:43.806Z,20.1
2018-08-06T07:12:03.976Z,20.2
2018-08-06T07:12:24.139Z,20.2
2018-08-06T07:12:45.282Z,20.2
2018-08-06T07:13:05.895Z,20.2
2018-08-06T07:13:26.180Z,20.2
2018-08-06T07:13:47.210Z,20.2
2018-08-06T07:14:07.499Z,20.3
2018-08-06T07:14:27.761Z,20.2
2018-08-06T07:14:48.119Z,20.2
2018-08-06T07:15:08.593Z,20.3
2018-08-06T07:15:28.977Z,20.2
2018-08-06T07:15:49.688Z,20.3
2018-08-06T07:16:09.871Z,20.2
2018-08-06T07:16:30.220Z,20.4
2018-08-06T07:16:50.486Z,20.3
2018-08-06T07:17:10.701Z,20.4
2018-08-06T07:17:30.927Z,20.4
2018-08-06T07:17:51.201Z,20.4
2018-08-06T07:18:11.423Z,20.4
2018-08-06T07:18:31.754Z,20.4
2018-08-06T07:18:52.569Z,20.3
2018-08-06T07:19:12.797Z,20.4
2018-08-06T07:19:33.000Z,20.4
2018-08-06T07:19:53.317Z,20.4
2018-08-06T07:20:13.655Z,20.4
2018-08-06T07:20:33.882Z,20.5
2018-08-06T07:20:54.163Z,20.6
2018-08-06T07:21:14.649Z,20.6
2018-08-06T07:21:34.936Z,20.6
2018-08-06T07:21:55.206Z,20.6
2018-08-06T07:22:15.412Z,20.6
2018-08-06T07:22:35.593Z,20.7
2018-08-06T07:22:56.668Z,20.7
2018-08-06T07:23:16.968Z,20.6
2018-08-06T07:23:37.182Z,20.6
2018-08-06T07:23:57.391Z,20.7
2018-08-06T07:24:17.578Z,20.6
2018-08-06T07:24:37.788Z,20.6
2018-08-06T07:24:57.932Z,20.6
2018-08-06T07:25:18.198Z,20.7
2018-08-06T07:25:38.643Z,20.7
2018-08-06T07:25:58.959Z,20.6
2018-08-06T07:26:19.326Z,20.7
2018-08-06T07:26:39.554Z,20.7
2018-08-06T07:26:59.829Z,20.7
2018-08-06T07:27:20.019Z,20.8
2018-08-06T07:27:41.169Z,20.7
2018-08-06T07:28:01.440Z,20.8
2018-08-06T07:28:21.653Z,20.8
2018-08-06T07:28:41.908Z,20.8
2018-08-06T07:29:02.101Z,20.9
2018-08-06T07:29:22.358Z,20.8
2018-08-06T07:29:42.547Z,20.9
2018-08-06T07:30:02.824Z,20.8
2018-08-06T07:30:23.041Z,20.9
2018-08-06T07:30:43.275Z,20.9
2018-08-06T07:31:03.477Z,20.9
2018-08-06T07:31:23.763Z,21
2018-08-06T07:31:44.001Z,21
2018-08-06T07:32:04.276Z,21
2018-08-06T07:32:24.460Z,21
2018-08-06T07:32:44.765Z,21.1
2018-08-06T07:33:04.937Z,21.1
2018-08-06T07:33:25.183Z,21
2018-08-06T07:33:45.586Z,21.1
2018-08-06T07:34:05.768Z,21
2018-08-06T07:34:25.945Z,21.1
2018-08-06T07:34:46.340Z,21.1
2018-08-06T07:35:06.611Z,21.1
2018-08-06T07:35:26.816Z,21.1
2018-08-06T07:35:47.114Z,21.2
2018-08-06T07:36:08.792Z,21.3
2018-08-06T07:36:28.924Z,21.1
2018-08-06T07:36:49.237Z,21.2
2018-08-06T07:37:09.380Z,21.3
2018-08-06T07:37:29.587Z,21.3
2018-08-06T07:37:49.810Z,21.3
2018-08-06T07:38:10.088Z,21.3
2018-08-06T07:38:30.312Z,21.3
2018-08-06T07:38:50.515Z,21.4
2018-08-06T07:39:10.772Z,21.3
2018-08-06T07:39:30.955Z,21.3
2018-08-06T07:39:51.179Z,21.3
2018-08-06T07:40:11.444Z,21.4
2018-08-06T07:40:31.612Z,21.4
2018-08-06T07:40:51.918Z,21.4
2018-08-06T07:41:12.190Z,21.4
2018-08-06T07:41:32.453Z,21.4
2018-08-06T07:41:52.596Z,21.4
2018-08-06T07:42:12.787Z,21.5
2018-08-06T07:42:32.951Z,21.5
2018-08-06T07:42:53.165Z,21.5
2018-08-06T07:43:13.419Z,21.5
2018-08-06T07:43:34.291Z,21.5
2018-08-06T07:43:54.651Z,21.5
2018-08-06T07:44:14.862Z,21.5
2018-08-06T07:44:35.040Z,21.5
2018-08-06T07:44:55.182Z,21.6
2018-08-06T07:45:15.454Z,21.7
2018-08-06T07:45:35.680Z,21.6
2018-08-06T07:45:55.984Z,21.7
2018-08-06T07:46:16.152Z,21.7
2018-08-06T07:46:36.380Z,21.7
2018-08-06T07:46:56.625Z,21.7
2018-08-06T07:47:16.906Z,21.7
2018-08-06T07:47:37.053Z,21.7
2018-08-06T07:47:57.271Z,21.7
2018-08-06T07:48:17.940Z,21.7
2018-08-06T07:48:38.157Z,21.7
2018-08-06T07:48:58.449Z,21.7
2018-08-06T07:49:18.781Z,21.7
2018-08-06T07:49:39.157Z,21.7
2018-08-06T07:49:59.851Z,21.7
2018-08-06T07:50:19.964Z,21.8
2018-08-06T07:50:40.248Z,21.8
2018-08-06T07:51:00.787Z,21.8
2018-08-06T07:51:21.086Z,21.9
2018-08-06T07:51:41.298Z,21.8
2018-08-06T07:52:01.737Z,21.8
2018-08-06T07:52:21.923Z,21.9
2018-08-06T07:52:42.177Z,21.8
2018-08-06T07:53:02.372Z,21.8
2018-08-06T07:53:22.633Z,21.8
2018-08-06T07:53:42.932Z,21.8
2018-08-06T07:54:03.145Z,21.9
2018-08-06T07:54:24.078Z,21.9
2018-08-06T07:54:44.281Z,21.9
2018-08-06T07:55:04.608Z,21.9
2018-08-06T07:55:24.878Z,21.8
2018-08-06T07:55:45.064Z,21.9
2018-08-06T07:56:05.225Z,21.9
2018-08-06T07:56:25.435Z,21.9
2018-08-06T07:56:45.649Z,21.9
2018-08-06T07:57:05.839Z,21.9
2018-08-06T07:57:26.022Z,21.9
2018-08-06T07:57:46.293Z,22
2018-08-06T07:58:06.513Z,21.9
2018-08-06T07:58:26.746Z,21.9
2018-08-06T07:58:46.974Z,21.9
2018-08-06T07:59:07.130Z,21.9
2018-08-06T07:59:27.344Z,22
2018-08-06T07:59:47.637Z,22
2018-08-06T08:00:07.996Z,21.9
2018-08-06T08:00:28.198Z,22
2018-08-06T08:00:48.411Z,21.9
2018-08-06T08:01:08.638Z,22
2018-08-06T08:01:28.821Z,22
2018-08-06T08:01:48.997Z,22
2018-08-06T08:02:09.359Z,22.1
2018-08-06T08:02:29.622Z,22.1
2018-08-06T08:02:49.909Z,22.1
2018-08-06T08:03:10.162Z,22.1
2018-08-06T08:03:30.400Z,22.1
2018-08-06T08:03:50.574Z,22.2
2018-08-06T08:04:10.814Z,22.2
2018-08-06T08:04:31.074Z,22.2
2018-08-06T08:04:51.334Z,22.2
2018-08-06T08:05:11.539Z,22.2
2018-08-06T08:05:31.742Z,22.3
2018-08-06T08:05:51.901Z,22.2
2018-08-06T08:06:12.368Z,22.3
2018-08-06T08:06:32.639Z,22.2
2018-08-06T08:06:52.833Z,22.2
2018-08-06T08:07:13.055Z,22.2
2018-08-06T08:07:33.232Z,22.3
2018-08-06T08:07:53.487Z,22.3
2018-08-06T08:08:13.700Z,22.3
2018-08-06T08:08:33.913Z,22.2
2018-08-06T08:08:54.125Z,22.3
2018-08-06T08:09:14.365Z,22.3
2018-08-06T08:09:34.615Z,22.4
2018-08-06T08:09:54.796Z,22.4
2018-08-06T08:10:15.031Z,22.4
2018-08-06T08:10:35.211Z,22.4
2018-08-06T08:10:55.350Z,22.5
2018-08-06T08:11:15.537Z,22.5
2018-08-06T08:11:35.761Z,22.5
2018-08-06T08:11:56.019Z,22.5
2018-08-06T08:12:16.172Z,22.5
2018-08-06T08:12:36.391Z,22.5
2018-08-06T08:12:56.532Z,22.5
2018-08-06T08:13:16.680Z,22.5
2018-08-06T08:13:36.972Z,22.6
2018-08-06T08:13:57.181Z,22.7
2018-08-06T08:14:17.340Z,22.6
2018-08-06T08:14:37.688Z,22.6
2018-08-06T08:14:57.872Z,22.6
2018-08-06T08:15:18.039Z,22.6
2018-08-06T08:15:38.230Z,22.7
2018-08-06T08:15:58.504Z,22.6
2018-08-06T08:16:19.623Z,22.6
2018-08-06T08:16:39.852Z,22.7
2018-08-06T08:17:00.104Z,22.7
2018-08-06T08:17:20.316Z,22.8
2018-08-06T08:17:40.467Z,22.8
2018-08-06T08:18:00.652Z,22.8
2018-08-06T08:18:20.852Z,22.8
2018-08-06T08:18:41.168Z,22.8
2018-08-06T08:19:01.388Z,22.8
2018-08-06T08:19:21.594Z,22.9
2018-08-06T08:19:42.032Z,22.8
2018-08-06T08:20:02.338Z,22.7
2018-08-06T08:20:23.131Z,22.8
2018-08-06T08:20:43.200Z,22.8
2018-08-06T08:21:03.387Z,22.8
2018-08-06T08:21:23.607Z,22.9
2018-08-06T08:21:43.869Z,22.9
2018-08-06T08:22:04.124Z,22.9
2018-08-06T08:22:24.299Z,22.9
2018-08-06T08:22:44.457Z,22.9
2018-08-06T08:23:04.690Z,23
2018-08-06T08:23:24.879Z,23
2018-08-06T08:23:45.051Z,23
2018-08-06T08:24:05.213Z,23
2018-08-06T08:24:25.436Z,23
2018-08-06T08:24:45.581Z,23
2018-08-06T08:25:05.802Z,23
2018-08-06T08:25:25.925Z,23
2018-08-06T08:25:46.143Z,23
2018-08-06T08:26:06.310Z,23.1
2018-08-06T08:26:26.476Z,23.1
2018-08-06T08:26:46.692Z,23.1
2018-08-06T08:27:06.914Z,23.2
2018-08-06T08:27:27.104Z,23.2
2018-08-06T08:27:47.287Z,23.1
2018-08-06T08:28:07.479Z,23.2
2018-08-06T08:28:27.692Z,23.3
2018-08-06T08:28:47.889Z,23.2
2018-08-06T08:29:08.053Z,23.2
2018-08-06T08:29:28.267Z,23.2
2018-08-06T08:29:48.432Z,23.3
2018-08-06T08:30:08.617Z,23.3
2018-08-06T08:30:28.801Z,23.3
2018-08-06T08:30:48.955Z,23.4
2018-08-06T08:31:09.120Z,23.3
2018-08-06T08:31:29.281Z,23.3
2018-08-06T08:31:49.472Z,23.3
2018-08-06T08:32:09.676Z,23.3
2018-08-06T08:32:29.920Z,23.3
2018-08-06T08:32:50.136Z,23.2
2018-08-06T08:33:10.301Z,23.3
2018-08-06T08:33:30.488Z,23.4
2018-08-06T08:33:50.668Z,23.4
2018-08-06T08:34:10.861Z,23.4
2018-08-06T08:34:31.054Z,23.4
2018-08-06T08:34:51.273Z,23.5
2018-08-06T08:35:11.506Z,23.4
2018-08-06T08:35:31.760Z,23.4
2018-08-06T08:35:52.001Z,23.5
2018-08-06T08:36:12.248Z,23.4
2018-08-06T08:36:32.428Z,23.5
2018-08-06T08:36:52.666Z,23.5
2018-08-06T08:37:12.896Z,23.6
2018-08-06T08:37:33.067Z,23.5
2018-08-06T08:37:53.310Z,23.6
2018-08-06T08:38:13.479Z,23.6
2018-08-06T08:38:33.694Z,23.7
2018-08-06T08:38:53.955Z,23.6
2018-08-06T08:39:14.376Z,23.7
2018-08-06T08:39:34.580Z,23.6
2018-08-06T08:39:54.751Z,23.6
2018-08-06T08:40:14.968Z,23.6
2018-08-06T08:40:35.148Z,23.6
2018-08-06T08:40:55.357Z,23.6
2018-08-06T08:41:15.625Z,23.6
2018-08-06T08:41:35.859Z,23.7
2018-08-06T08:41:56.063Z,23.5
2018-08-06T08:42:16.229Z,23.6
2018-08-06T08:42:36.415Z,23.7
2018-08-06T08:42:56.570Z,23.7
2018-08-06T08:43:16.883Z,23.7
2018-08-06T08:43:37.099Z,23.7
2018-08-06T08:43:57.333Z,23.7
2018-08-06T08:44:17.557Z,23.8
2018-08-06T08:44:37.748Z,23.8
2018-08-06T08:44:57.933Z,23.8
2018-08-06T08:45:18.177Z,23.8
2018-08-06T08:45:38.468Z,23.8
2018-08-06T08:45:58.872Z,23.8
2018-08-06T08:46:19.376Z,23.9
2018-08-06T08:46:39.576Z,23.8
2018-08-06T08:46:59.803Z,23.9
2018-08-06T08:47:20.215Z,23.9
2018-08-06T08:47:40.546Z,23.9
2018-08-06T08:48:00.761Z,23.9
2018-08-06T08:48:21.039Z,23.9
2018-08-06T08:48:41.376Z,23.9
2018-08-06T08:49:01.663Z,24
2018-08-06T08:49:21.838Z,23.9
2018-08-06T08:49:42.010Z,24
2018-08-06T08:50:02.253Z,23.9
2018-08-06T08:50:22.512Z,24.1
2018-08-06T08:50:42.940Z,24.1
2018-08-06T08:51:03.226Z,23.9
2018-08-06T08:51:23.448Z,24
2018-08-06T08:51:43.605Z,24.1
2018-08-06T08:52:03.799Z,24.1
2018-08-06T08:52:24.106Z,24.1
2018-08-06T08:52:44.307Z,24.2
2018-08-06T08:53:04.539Z,24.1
2018-08-06T08:53:24.682Z,24.2
2018-08-06T08:53:44.888Z,24.2
2018-08-06T08:54:05.080Z,24.2
2018-08-06T08:54:25.240Z,24.2
2018-08-06T08:54:45.398Z,24.2
2018-08-06T08:55:05.624Z,24.2
2018-08-06T08:55:25.931Z,24.2
2018-08-06T08:55:46.171Z,24.3
2018-08-06T08:56:06.529Z,24.3
2018-08-06T08:56:26.793Z,24.3
2018-08-06T08:56:46.949Z,24.3
2018-08-06T08:57:07.173Z,24.3
2018-08-06T08:57:27.467Z,24.3
2018-08-06T08:57:47.615Z,24.3
2018-08-06T08:58:07.828Z,24.3
2018-08-06T08:58:28.059Z,24.3
2018-08-06T08:58:48.320Z,24.3
2018-08-06T08:59:08.370Z,24.4
2018-08-06T08:59:28.587Z,24.3
2018-08-06T08:59:48.744Z,24.3
2018-08-06T09:00:08.915Z,24.2
2018-08-06T09:00:29.111Z,24.3
2018-08-06T09:00:49.372Z,24.4
2018-08-06T09:01:09.496Z,24.4
2018-08-06T09:01:29.675Z,24.4
2018-08-06T09:01:49.815Z,24.4
2018-08-06T09:02:09.959Z,24.4
2018-08-06T09:02:30.122Z,24.4
2018-08-06T09:02:50.268Z,24.5
2018-08-06T09:03:10.462Z,24.4
2018-08-06T09:03:30.645Z,24.4
2018-08-06T09:03:50.847Z,24.4
2018-08-06T09:04:11.023Z,24.5
2018-08-06T09:04:31.211Z,24.5
2018-08-06T09:04:51.400Z,24.5
2018-08-06T09:05:11.577Z,24.5
2018-08-06T09:05:31.762Z,24.5
2018-08-06T09:05:51.967Z,24.5
2018-08-06T09:06:12.127Z,24.5
2018-08-06T09:06:32.291Z,24.5
2018-08-06T09:06:52.444Z,24.5
2018-08-06T09:07:12.610Z,24.5
2018-08-06T09:07:32.788Z,24.5
2018-08-06T09:07:52.944Z,24.5
2018-08-06T09:08:13.198Z,24.5
2018-08-06T09:08:33.347Z,24.4
2018-08-06T09:08:53.538Z,24.5
2018-08-06T09:09:13.728Z,24.5
2018-08-06T09:09:33.919Z,24.5
2018-08-06T09:09:54.094Z,24.5
2018-08-06T09:10:14.268Z,24.4
2018-08-06T09:10:34.452Z,24.4
2018-08-06T09:10:54.642Z,24.4
2018-08-06T09:11:14.881Z,24.3
2018-08-06T09:11:35.043Z,24.3
2018-08-06T09:11:55.237Z,24.4
2018-08-06T09:12:15.407Z,24.4
2018-08-06T09:12:35.602Z,24.3
2018-08-06T09:12:55.770Z,24.4
2018-08-06T09:13:15.984Z,24.4
2018-08-06T09:13:36.235Z,24.3
2018-08-06T09:13:56.440Z,24.3
2018-08-06T09:14:16.699Z,24.4
2018-08-06T09:14:36.970Z,24.4
2018-08-06T09:14:57.184Z,24.4
2018-08-06T09:15:17.347Z,24.5
2018-08-06T09:15:37.532Z,24.5
2018-08-06T09:15:57.729Z,24.5
2018-08-06T09:16:17.934Z,24.6
2018-08-06T09:16:38.128Z,24.6
2018-08-06T09:16:58.297Z,24.7
2018-08-06T09:17:18.462Z,24.6
2018-08-06T09:17:38.628Z,24.6
2018-08-06T09:17:58.801Z,24.6
2018-08-06T09:18:18.972Z,24.6
2018-08-06T09:18:39.150Z,24.7
2018-08-06T09:18:59.298Z,24.7
2018-08-06T09:19:19.460Z,24.7
2018-08-06T09:19:39.626Z,24.7
2018-08-06T09:19:59.797Z,24.7
2018-08-06T09:20:19.939Z,24.7
2018-08-06T09:20:40.092Z,24.8
2018-08-06T09:21:00.303Z,24.8
2018-08-06T09:21:20.668Z,24.8
2018-08-06T09:21:40.758Z,24.8
2018-08-06T09:22:00.909Z,24.8
2018-08-06T09:22:21.151Z,24.8
2018-08-06T09:22:41.386Z,24.8
2018-08-06T09:23:01.582Z,24.8
2018-08-06T09:23:21.742Z,24.8
2018-08-06T09:23:41.925Z,24.8
2018-08-06T09:24:02.123Z,24.8
2018-08-06T09:24:22.344Z,24.8
2018-08-06T09:24:42.551Z,24.8
2018-08-06T09:25:02.843Z,24.8
2018-08-06T09:25:23.078Z,24.9
2018-08-06T09:25:43.178Z,24.8
2018-08-06T09:26:03.352Z,24.8
2018-08-06T09:26:23.547Z,24.8
2018-08-06T09:26:43.751Z,24.8
2018-08-06T09:27:04.421Z,24.8
2018-08-06T09:27:24.695Z,24.8
2018-08-06T09:27:44.922Z,24.8
2018-08-06T09:28:05.100Z,24.9
2018-08-06T09:28:25.290Z,24.8
2018-08-06T09:28:45.606Z,24.8
2018-08-06T09:29:05.814Z,24.8
2018-08-06T09:29:26.053Z,24.8
2018-08-06T09:29:46.288Z,24.8
2018-08-06T09:30:06.457Z,24.8
2018-08-06T09:30:26.692Z,24.7
2018-08-06T09:30:46.862Z,24.8
2018-08-06T09:31:07.123Z,24.7
2018-08-06T09:31:27.361Z,24.7
2018-08-06T09:31:47.684Z,24.8
2018-08-06T09:32:07.928Z,24.8
2018-08-06T09:32:28.125Z,24.8
2018-08-06T09:32:48.294Z,24.8
2018-08-06T09:33:08.535Z,24.8
2018-08-06T09:33:28.685Z,24.7
2018-08-06T09:33:48.873Z,24.8
2018-08-06T09:34:09.089Z,24.8
2018-08-06T09:34:29.200Z,24.8
2018-08-06T09:34:49.396Z,24.8
2018-08-06T09:35:09.557Z,24.8
2018-08-06T09:35:29.714Z,24.9
2018-08-06T09:35:49.888Z,24.9
2018-08-06T09:36:10.051Z,24.9
2018-08-06T09:36:30.236Z,24.9
2018-08-06T09:36:50.438Z,24.9
2018-08-06T09:37:10.583Z,24.9
2018-08-06T09:37:30.721Z,24.9
2018-08-06T09:37:50.872Z,24.9
2018-08-06T09:38:11.015Z,24.9
2018-08-06T09:38:31.165Z,24.9
2018-08-06T09:38:51.302Z,24.9
2018-08-06T09:39:11.475Z,24.9
2018-08-06T09:39:31.611Z,24.9
2018-08-06T09:39:51.784Z,24.9
2018-08-06T09:40:11.918Z,24.9
2018-08-06T09:40:32.194Z,25
2018-08-06T09:40:52.420Z,24.9
2018-08-06T09:41:12.584Z,25
2018-08-06T09:41:32.738Z,24.9
2018-08-06T09:41:52.873Z,25.1
2018-08-06T09:42:13.005Z,25
2018-08-06T09:42:33.167Z,25
2018-08-06T09:42:53.354Z,25.1
2018-08-06T09:43:13.499Z,25.1
2018-08-06T09:43:33.712Z,25.1
2018-08-06T09:43:53.861Z,25.2
2018-08-06T09:44:13.994Z,25.1
2018-08-06T09:44:34.187Z,25
2018-08-06T09:44:54.358Z,25
2018-08-06T09:45:14.489Z,25.1
2018-08-06T09:45:34.650Z,25.1
2018-08-06T09:45:54.803Z,25
2018-08-06T09:46:14.937Z,25
2018-08-06T09:46:35.101Z,25
2018-08-06T09:46:55.256Z,25
2018-08-06T09:47:15.409Z,25
2018-08-06T09:47:35.568Z,25.1
2018-08-06T09:47:55.753Z,25.1
2018-08-06T09:48:15.931Z,25.1
2018-08-06T09:48:36.136Z,25
2018-08-06T09:48:56.333Z,25.1
2018-08-06T09:49:16.522Z,25.2
2018-08-06T09:49:36.682Z,25.2
2018-08-06T09:49:56.836Z,25.2
2018-08-06T09:50:16.995Z,25.3
2018-08-06T09:50:37.137Z,25.3
2018-08-06T09:50:57.309Z,25.3
2018-08-06T09:51:17.537Z,25.3
2018-08-06T09:51:37.688Z,25.4
2018-08-06T09:51:57.866Z,25.3
2018-08-06T09:52:18.072Z,25.3
2018-08-06T09:52:38.189Z,25.3
2018-08-06T09:52:58.427Z,25.4
2018-08-06T09:53:18.509Z,25.4
2018-08-06T09:53:38.686Z,25.4
2018-08-06T09:53:58.845Z,25.4
2018-08-06T09:54:18.987Z,25.4
2018-08-06T09:54:39.166Z,25.5
2018-08-06T09:54:59.370Z,25.4
2018-08-06T09:55:19.533Z,25.4
2018-08-06T09:55:39.745Z,25.4
2018-08-06T09:55:59.890Z,25.4
2018-08-06T09:56:20.043Z,25.4
2018-08-06T09:56:40.247Z,25.4
2018-08-06T09:57:00.449Z,25.4
2018-08-06T09:57:20.596Z,25.3
2018-08-06T09:57:40.732Z,25.4
2018-08-06T09:58:00.923Z,25.4
2018-08-06T09:58:21.058Z,25.4
2018-08-06T09:58:41.248Z,25.4
2018-08-06T09:59:01.407Z,25.5
2018-08-06T09:59:21.632Z,25.3
2018-08-06T09:59:41.787Z,25.5
2018-08-06T10:00:01.924Z,25.5
2018-08-06T10:00:22.076Z,25.5
2018-08-06T10:00:42.247Z,25.4
2018-08-06T10:01:02.386Z,25.5
2018-08-06T10:01:22.566Z,25.5
2018-08-06T10:01:42.721Z,25.5
2018-08-06T10:02:02.879Z,25.5
2018-08-06T10:02:23.075Z,25.5
2018-08-06T10:02:43.198Z,25.6
2018-08-06T10:03:03.353Z,25.6
2018-08-06T10:03:23.492Z,25.6
2018-08-06T10:03:43.653Z,25.6
2018-08-06T10:04:03.831Z,25.5
2018-08-06T10:04:24.017Z,25.6
2018-08-06T10:04:44.167Z,25.6
2018-08-06T10:05:04.308Z,25.6
2018-08-06T10:05:24.494Z,25.6
2018-08-06T10:05:44.942Z,25.6
2018-08-06T10:06:05.252Z,25.6
2018-08-06T10:06:25.725Z,25.6
2018-08-06T10:06:45.771Z,25.6
2018-08-06T10:07:05.847Z,25.5
2018-08-06T10:07:25.999Z,25.6
2018-08-06T10:07:46.145Z,25.6
2018-08-06T10:08:06.291Z,25.6
2018-08-06T10:08:26.423Z,25.6
2018-08-06T10:08:46.564Z,25.6
2018-08-06T10:09:06.722Z,25.6
2018-08-06T10:09:26.899Z,25.6
2018-08-06T10:09:47.080Z,25.6
2018-08-06T10:10:07.235Z,25.6
2018-08-06T10:10:27.401Z,25.6
2018-08-06T10:10:47.555Z,25.6
2018-08-06T10:11:07.725Z,25.6
2018-08-06T10:11:27.972Z,25.4
2018-08-06T10:11:48.140Z,25.5
2018-08-06T10:12:08.325Z,25.5
2018-08-06T10:12:28.486Z,25.5
2018-08-06T10:12:48.634Z,25.5
2018-08-06T10:13:08.805Z,25.5
2018-08-06T10:13:28.980Z,25.5
2018-08-06T10:13:49.147Z,25.5
2018-08-06T10:14:09.299Z,25.5
2018-08-06T10:14:29.446Z,25.5
2018-08-06T10:14:49.620Z,25.6
2018-08-06T10:15:09.778Z,25.6
2018-08-06T10:15:29.911Z,25.5
2018-08-06T10:15:50.093Z,25.6
2018-08-06T10:16:10.275Z,25.6
2018-08-06T10:16:30.443Z,25.6
2018-08-06T10:16:50.595Z,25.6
2018-08-06T10:17:10.749Z,25.6
2018-08-06T10:17:30.923Z,25.6
2018-08-06T10:17:51.075Z,25.7
2018-08-06T10:18:11.250Z,25.7